Time;durP1;ratioP1;P1;durP2;ratioP2;P2;SDS_P1;SDS_P2;PMS_P1;PMS_P2;Temp;Humidity;BMP_temperature;BMP_pressure;BME280_temperature;BME280_humidity;BME280_pressure;Samples;Min_cycle;Max_cycle;Signal;HPM_P1;HPM_P2
2023/01/10 00:00:42;;;;;;;;;;;;;;;27.14;45.02;96099.86;619977;229;64971;-74
2023/01/10 00:03:10;;;;;;;;;;;;;;;27.13;45.65;96093.68;619889;229;64970;-74
2023/01/10 00:05:39;;;;;;;;;;;;;;;27.13;46.61;96107.16;619887;229;64897;-74
2023/01/10 00:08:07;;;;;;;;;;;;;;;27.13;46.22;96090.20;619866;229;65578;-74
2023/01/10 00:10:35;;;;;;;;;;;;;;;27.10;45.88;96094.34;619886;229;65052;-74
2023/01/10 00:13:35;;;;;;;;;;;;;;;27.10;46.76;96082.78;619932;229;64928;-74
2023/01/10 00:15:38;;;;;;;;;;;;;;;27.09;45.54;96092.78;618032;228;65398;-71
2023/01/10 00:18:05;;;;;;;;;;;;;;;27.08;46.58;96093.88;619901;229;63760;-71
2023/01/10 00:20:33;;;;;;;;;;;;;;;27.07;46.35;96086.92;619885;229;64883;-71
2023/01/10 00:23:00;;;;;;;;;;;;;;;27.07;46.64;96083.45;619864;229;65683;-71
2023/01/10 00:25:32;;;;;;;;;;;;;;;27.06;46.33;96085.33;619962;229;64918;-71
2023/01/10 00:28:04;;;;;;;;;;;;;;;27.05;45.65;96085.68;619875;229;64908;-71
2023/01/10 00:30:34;;;;;;;;;;;;;;;27.05;46.52;96091.08;619886;229;65529;-71
2023/01/10 00:33:01;;;;;;;;;;;;;;;27.04;47.03;96094.88;619824;227;65566;-71
2023/01/10 00:35:29;;;;;;;;;;;;;;;27.02;45.17;96097.91;617744;229;64991;-71
2023/01/10 00:38:06;;;;;;;;;;;;;;;27.01;45.90;96102.53;617660;230;65488;-71
2023/01/10 00:40:26;;;;;;;;;;;;;;;27.00;45.84;96100.93;616795;228;65033;-71
2023/01/10 00:45:38;;;;;;;;;;;;;;;26.98;46.24;96095.11;617675;230;65606;-70
2023/01/10 00:48:05;;;;;;;;;;;;;;;26.99;46.37;96095.89;617642;229;62970;-70
2023/01/10 00:50:33;;;;;;;;;;;;;;;26.97;46.68;96093.52;617699;230;62741;-70
2023/01/10 00:53:00;;;;;;;;;;;;;;;26.97;44.76;96090.03;617697;230;62550;-70
2023/01/10 00:55:28;;;;;;;;;;;;;;;26.95;45.40;96076.09;617665;230;62952;-70
2023/01/10 00:57:55;;;;;;;;;;;;;;;26.96;44.94;96074.98;617634;230;64882;-74
2023/01/10 01:00:23;;;;;;;;;;;;;;;26.94;44.60;96069.91;617652;230;63356;-75
2023/01/10 01:02:50;;;;;;;;;;;;;;;26.94;46.75;96082.61;617630;227;62839;-74
2023/01/10 01:05:18;;;;;;;;;;;;;;;26.93;46.50;96081.05;617661;230;62764;-74
2023/01/10 01:07:52;;;;;;;;;;;;;;;26.91;44.76;96067.88;617713;230;63110;-74
2023/01/10 01:10:25;;;;;;;;;;;;;;;26.91;45.52;96075.19;617632;230;65321;-70
2023/01/10 01:12:53;;;;;;;;;;;;;;;26.90;45.94;96060.93;617656;230;62834;-70
2023/01/10 01:15:21;;;;;;;;;;;;;;;26.91;45.83;96050.92;617639;230;65515;-70
2023/01/10 01:17:49;;;;;;;;;;;;;;;26.89;46.01;96059.33;617663;230;63170;-74
2023/01/10 01:20:17;;;;;;;;;;;;;;;26.88;46.64;96028.11;617706;230;63791;-74
2023/01/10 01:22:44;;;;;;;;;;;;;;;26.88;46.06;96040.81;617625;230;63172;-70
2023/01/10 01:25:12;;;;;;;;;;;;;;;26.87;46.88;96041.91;617663;230;63023;-70
2023/01/10 01:27:39;;;;;;;;;;;;;;;26.86;46.26;96027.66;617625;230;64824;-74
2023/01/10 01:30:08;;;;;;;;;;;;;;;26.86;45.31;96043.05;617637;230;65401;-74
2023/01/10 01:32:36;;;;;;;;;;;;;;;26.85;45.60;96022.61;617705;230;65251;-74
2023/01/10 01:35:04;;;;;;;;;;;;;;;26.83;46.82;96030.23;619315;229;64974;-74
2023/01/10 01:37:32;;;;;;;;;;;;;;;26.82;45.49;96021.37;619884;229;63107;-74
2023/01/10 01:40:00;;;;;;;;;;;;;;;26.82;46.33;96028.64;619882;229;64814;-74
2023/01/10 01:42:29;;;;;;;;;;;;;;;26.77;45.90;96013.48;619849;229;62783;-74
2023/01/10 01:45:13;;;;;;;;;;;;;;;26.81;46.20;96016.30;619730;228;65689;-74
2023/01/10 01:47:47;;;;;;;;;;;;;;;26.81;45.88;96016.30;619906;229;65564;-74
2023/01/10 01:50:22;;;;;;;;;;;;;;;26.78;46.94;96013.14;619856;229;65663;-74
2023/01/10 01:52:51;;;;;;;;;;;;;;;26.76;45.58;95988.45;619856;229;65436;-74
2023/01/10 01:55:19;;;;;;;;;;;;;;;26.76;46.23;96001.11;619566;228;65343;-70
2023/01/10 01:57:47;;;;;;;;;;;;;;;26.74;45.61;95995.29;619618;229;64899;-72
2023/01/10 02:00:15;;;;;;;;;;;;;;;26.74;46.82;95973.73;618829;229;66666;-72
2023/01/10 02:02:45;;;;;;;;;;;;;;;26.74;46.57;95979.90;618861;229;62807;-72
2023/01/10 02:05:14;;;;;;;;;;;;;;;26.74;45.94;95984.51;618596;229;65159;-72
2023/01/10 02:07:43;;;;;;;;;;;;;;;26.72;46.75;95987.52;618540;229;65078;-72
2023/01/10 02:10:22;;;;;;;;;;;;;;;26.71;45.95;95983.27;619435;229;65227;-72
2023/01/10 02:12:50;;;;;;;;;;;;;;;26.70;46.53;95989.75;619417;229;65067;-72
2023/01/10 02:15:18;;;;;;;;;;;;;;;26.70;46.43;95981.67;619451;229;65885;-72
2023/01/10 02:17:50;;;;;;;;;;;;;;;26.69;44.88;95968.55;618697;229;64982;-72
2023/01/10 02:20:19;;;;;;;;;;;;;;;26.69;45.23;95976.63;619722;229;66503;-72
2023/01/10 02:23:03;;;;;;;;;;;;;;;26.69;47.11;95982.80;619863;229;65798;-72
2023/01/10 02:25:42;;;;;;;;;;;;;;;26.67;47.37;95987.73;619893;229;62922;-72
2023/01/10 02:28:11;;;;;;;;;;;;;;;26.67;46.69;95979.64;619879;229;62773;-72
2023/01/10 02:30:59;;;;;;;;;;;;;;;26.65;46.83;95987.27;619922;229;62730;-73
2023/01/10 02:33:28;;;;;;;;;;;;;;;26.65;47.08;95994.56;619882;229;62908;-73
2023/01/10 02:36:00;;;;;;;;;;;;;;;26.65;45.96;95978.41;619720;228;62736;-72
2023/01/10 02:38:44;;;;;;;;;;;;;;;26.64;46.87;95964.14;619849;229;65023;-73
2023/01/10 02:41:19;;;;;;;;;;;;;;;26.63;45.39;95967.16;619845;229;64974;-71
2023/01/10 02:43:48;;;;;;;;;;;;;;;26.61;46.14;95964.81;619914;229;65049;-71
2023/01/10 02:46:20;;;;;;;;;;;;;;;26.61;45.82;95978.29;619832;228;65169;-72
2023/01/10 02:48:46;;;;;;;;;;;;;;;26.60;47.17;95963.25;619816;228;62640;-72
2023/01/10 02:51:21;;;;;;;;;;;;;;;26.58;46.75;95953.92;619926;229;64881;-72
2023/01/10 02:53:50;;;;;;;;;;;;;;;26.57;45.75;95950.42;619878;229;62793;-72
2023/01/10 02:56:32;;;;;;;;;;;;;;;26.58;45.87;95954.70;619608;228;64757;-71
2023/01/10 02:59:04;;;;;;;;;;;;;;;26.57;45.44;95966.58;619863;229;62744;-71
2023/01/10 03:01:38;;;;;;;;;;;;;;;26.57;48.31;95958.50;619844;229;65473;-72
2023/01/10 03:04:10;;;;;;;;;;;;;;;26.54;45.50;95946.48;619707;228;65515;-72
2023/01/10 03:06:40;;;;;;;;;;;;;;;26.54;47.53;95945.70;619625;228;64886;-68
2023/01/10 03:09:15;;;;;;;;;;;;;;;26.53;47.17;95950.30;619797;227;63147;-68
2023/01/10 03:11:44;;;;;;;;;;;;;;;26.52;48.39;95931.80;619854;229;62907;-68
2023/01/10 03:14:13;;;;;;;;;;;;;;;26.52;47.66;95937.18;619822;227;62877;-68
2023/01/10 03:16:42;;;;;;;;;;;;;;;26.50;47.44;95924.00;619745;228;63084;-68
2023/01/10 03:19:11;;;;;;;;;;;;;;;26.51;48.79;95916.73;619896;229;65282;-68
2023/01/10 03:21:40;;;;;;;;;;;;;;;26.49;47.03;95903.58;619950;229;64910;-68
2023/01/10 03:24:10;;;;;;;;;;;;;;;26.49;46.53;95919.74;619914;229;62662;-68
2023/01/10 03:26:39;;;;;;;;;;;;;;;26.48;47.14;95912.77;619669;229;65089;-68
2023/01/10 03:29:08;;;;;;;;;;;;;;;26.48;46.68;95901.20;619269;229;64984;-68
2023/01/10 03:31:37;;;;;;;;;;;;;;;26.46;45.39;95909.61;619882;229;65574;-68
2023/01/10 03:34:05;;;;;;;;;;;;;;;26.47;46.35;95910.42;619867;229;65364;-68
2023/01/10 03:36:34;;;;;;;;;;;;;;;26.44;46.85;95906.48;619890;229;64988;-68
2023/01/10 03:39:06;;;;;;;;;;;;;;;26.44;47.29;95914.56;619881;229;65485;-68
2023/01/10 03:41:35;;;;;;;;;;;;;;;26.43;45.02;95929.13;619776;228;63775;-68
2023/01/10 03:46:54;;;;;;;;;;;;;;;26.42;47.88;95907.93;619947;229;63743;-68
2023/01/10 03:49:23;;;;;;;;;;;;;;;26.40;47.59;95902.86;619884;228;64754;-68
2023/01/10 03:51:51;;;;;;;;;;;;;;;26.40;47.21;95913.64;619886;229;64984;-68
2023/01/10 03:54:18;;;;;;;;;;;;;;;26.40;47.42;95904.78;619890;229;62830;-68
2023/01/10 03:56:50;;;;;;;;;;;;;;;26.38;47.50;95921.26;619947;229;62708;-68
2023/01/10 03:59:19;;;;;;;;;;;;;;;26.39;45.60;95924.77;619908;229;65389;-68
2023/01/10 04:01:46;;;;;;;;;;;;;;;26.39;46.62;95930.15;619935;229;64974;-68
2023/01/10 04:04:14;;;;;;;;;;;;;;;26.37;46.63;95916.22;619961;229;64780;-68
2023/01/10 04:06:41;;;;;;;;;;;;;;;26.35;46.62;95917.34;619919;229;64973;-68
2023/01/10 04:09:09;;;;;;;;;;;;;;;26.34;45.20;95913.06;619918;229;64979;-68
2023/01/10 04:11:36;;;;;;;;;;;;;;;26.34;46.16;95907.67;619930;229;62365;-68
2023/01/10 04:14:04;;;;;;;;;;;;;;;26.34;46.54;95921.14;619917;229;64961;-68
2023/01/10 04:16:31;;;;;;;;;;;;;;;26.32;46.04;95923.37;619947;229;62740;-68
2023/01/10 04:18:59;;;;;;;;;;;;;;;26.32;47.39;95919.90;619890;229;62965;-68
2023/01/10 04:21:26;;;;;;;;;;;;;;;26.31;46.68;95910.26;619906;229;62806;-68
2023/01/10 04:23:53;;;;;;;;;;;;;;;26.30;47.37;95898.70;619899;229;63475;-68
2023/01/10 04:26:21;;;;;;;;;;;;;;;26.29;46.93;95889.03;619925;229;64721;-68
2023/01/10 04:28:48;;;;;;;;;;;;;;;26.29;45.58;95883.64;619955;229;64871;-68
2023/01/10 04:31:16;;;;;;;;;;;;;;;26.28;46.10;95898.23;619891;229;62892;-68
2023/01/10 04:33:43;;;;;;;;;;;;;;;26.27;48.69;95891.29;619872;229;64847;-68
2023/01/10 04:36:11;;;;;;;;;;;;;;;26.27;48.60;95890.48;619935;229;64960;-68
2023/01/10 04:38:39;;;;;;;;;;;;;;;26.25;47.12;95882.75;619937;229;64670;-68
2023/01/10 04:41:07;;;;;;;;;;;;;;;26.24;47.68;95874.98;619966;229;64890;-72
2023/01/10 04:43:34;;;;;;;;;;;;;;;26.23;47.91;95874.20;619876;229;62820;-72
2023/01/10 04:46:02;;;;;;;;;;;;;;;26.23;46.75;95874.20;619894;229;63084;-71
2023/01/10 04:48:30;;;;;;;;;;;;;;;26.22;47.02;95863.75;619939;229;64791;-69
2023/01/10 04:50:57;;;;;;;;;;;;;;;26.20;47.42;95864.10;619894;229;64865;-68
2023/01/10 04:53:25;;;;;;;;;;;;;;;26.20;46.13;95863.32;619952;229;62788;-68
2023/01/10 04:55:52;;;;;;;;;;;;;;;26.20;47.57;95852.55;619876;229;62782;-68
2023/01/10 04:58:20;;;;;;;;;;;;;;;26.18;47.07;95850.17;619898;229;62816;-68
2023/01/10 05:00:47;;;;;;;;;;;;;;;26.18;47.31;95842.09;619947;229;62762;-68
2023/01/10 05:03:19;;;;;;;;;;;;;;;26.17;47.93;95864.77;619901;229;62739;-71
2023/01/10 05:05:46;;;;;;;;;;;;;;;26.16;48.00;95873.95;619901;229;65076;-68
2023/01/10 05:08:13;;;;;;;;;;;;;;;26.15;46.95;95867.00;619935;229;65024;-71
2023/01/10 05:10:40;;;;;;;;;;;;;;;26.14;46.88;95849.28;619864;229;62692;-72
2023/01/10 05:13:08;;;;;;;;;;;;;;;26.15;46.99;95850.06;619904;229;62722;-71
2023/01/10 05:15:36;;;;;;;;;;;;;;;26.14;46.85;95854.67;619925;229;62628;-71
2023/01/10 05:18:03;;;;;;;;;;;;;;;26.13;47.73;95858.46;619887;229;62701;-71
2023/01/10 05:20:31;;;;;;;;;;;;;;;26.12;48.63;95854.20;619941;229;62720;-71
2023/01/10 05:22:58;;;;;;;;;;;;;;;26.11;48.42;95866.11;619879;229;62801;-72
2023/01/10 05:25:26;;;;;;;;;;;;;;;26.10;47.95;95875.28;619922;229;63274;-71
2023/01/10 05:27:54;;;;;;;;;;;;;;;26.09;46.86;95885.27;619901;229;64820;-71
2023/01/10 05:30:21;;;;;;;;;;;;;;;26.09;46.87;95897.95;619874;229;62724;-71
2023/01/10 05:32:49;;;;;;;;;;;;;;;26.08;47.58;95902.55;619945;229;62892;-72
2023/01/10 05:35:16;;;;;;;;;;;;;;;26.08;49.33;95899.05;619863;229;62781;-71
2023/01/10 05:37:44;;;;;;;;;;;;;;;26.07;50.19;95884.03;619852;229;62720;-71
2023/01/10 05:40:12;;;;;;;;;;;;;;;26.06;46.88;95895.92;619914;229;62663;-72
2023/01/10 05:42:39;;;;;;;;;;;;;;;26.06;47.13;95877.08;619875;229;62722;-72
2023/01/10 05:45:07;;;;;;;;;;;;;;;26.07;47.18;95875.95;619949;229;64953;-71
2023/01/10 05:47:34;;;;;;;;;;;;;;;26.06;46.86;95867.09;619898;229;64860;-71
2023/01/10 05:50:02;;;;;;;;;;;;;;;26.06;48.12;95861.70;619919;229;64847;-71
2023/01/10 05:52:29;;;;;;;;;;;;;;;26.06;47.87;95866.31;619890;229;62507;-72
2023/01/10 05:54:57;;;;;;;;;;;;;;;26.06;47.59;95864.40;619890;229;63593;-72
2023/01/10 05:57:24;;;;;;;;;;;;;;;26.06;47.62;95858.23;619932;229;63632;-72
2023/01/10 05:59:52;;;;;;;;;;;;;;;26.06;48.07;95869.00;619911;229;65521;-72
2023/01/10 06:02:19;;;;;;;;;;;;;;;26.06;47.16;95863.62;619888;229;64835;-72
2023/01/10 06:04:47;;;;;;;;;;;;;;;26.06;47.73;95859.02;619882;229;64888;-72
2023/01/10 06:07:14;;;;;;;;;;;;;;;26.07;47.74;95857.10;619896;229;65041;-73
2023/01/10 06:09:41;;;;;;;;;;;;;;;26.07;47.89;95865.18;619949;229;64670;-72
2023/01/10 06:12:09;;;;;;;;;;;;;;;26.07;49.05;95859.80;619907;229;64879;-73
2023/01/10 06:14:36;;;;;;;;;;;;;;;26.08;48.23;95872.13;619909;229;65232;-73
2023/01/10 06:17:08;;;;;;;;;;;;;;;26.08;49.27;95874.82;619915;229;64816;-71
2023/01/10 06:19:33;;;;;;;;;;;;;;;26.07;50.45;95876.73;619830;227;62761;-73
2023/01/10 06:22:02;;;;;;;;;;;;;;;26.08;50.74;95872.94;619913;229;62881;-73
2023/01/10 06:24:30;;;;;;;;;;;;;;;26.09;50.75;95884.49;619975;229;62683;-74
2023/01/10 06:26:57;;;;;;;;;;;;;;;26.10;50.21;95896.83;619873;229;62770;-68
2023/01/10 06:29:25;;;;;;;;;;;;;;;26.10;49.39;95900.30;619906;229;65323;-68
2023/01/10 06:31:52;;;;;;;;;;;;;;;26.12;50.66;95894.59;619882;229;64796;-67
2023/01/10 06:34:21;;;;;;;;;;;;;;;26.12;50.77;95916.13;619835;229;64895;-69
2023/01/10 06:36:48;;;;;;;;;;;;;;;26.14;49.61;95919.29;619963;229;64943;-67
2023/01/10 06:39:16;;;;;;;;;;;;;;;26.15;50.10;95920.07;619942;229;62064;-69
2023/01/10 06:41:43;;;;;;;;;;;;;;;26.16;50.48;95927.80;619920;229;62850;-67
2023/01/10 06:44:11;;;;;;;;;;;;;;;26.17;49.59;95934.00;619842;229;62483;-68
2023/01/10 06:46:38;;;;;;;;;;;;;;;26.18;51.16;95944.42;619813;229;64760;-68
2023/01/10 06:49:06;;;;;;;;;;;;;;;26.20;48.90;95946.80;619963;229;62697;-68
2023/01/10 06:51:33;;;;;;;;;;;;;;;26.19;48.07;95943.33;619912;229;62515;-68
2023/01/10 06:54:01;;;;;;;;;;;;;;;26.18;49.05;95949.81;619899;229;63269;-67
2023/01/10 06:56:28;;;;;;;;;;;;;;;26.19;48.85;95962.17;619921;229;63076;-71
2023/01/10 06:58:56;;;;;;;;;;;;;;;26.20;50.16;95974.52;619876;229;62477;-67
2023/01/10 07:01:23;;;;;;;;;;;;;;;26.22;48.96;95958.01;619337;229;62662;-70
2023/01/10 07:03:50;;;;;;;;;;;;;;;26.24;49.90;95958.47;620941;226;63745;-70
2023/01/10 07:06:18;;;;;;;;;;;;;;;26.26;49.67;95951.64;626964;226;64711;-68
2023/01/10 07:08:46;;;;;;;;;;;;;;;26.29;49.65;95952.88;626857;226;65058;-70
2023/01/10 07:11:15;;;;;;;;;;;;;;;26.29;49.72;95948.28;626890;226;62862;-68
2023/01/10 07:13:42;;;;;;;;;;;;;;;26.31;50.50;95953.34;627003;226;66482;-70
2023/01/10 07:16:12;;;;;;;;;;;;;;;26.34;50.19;95955.38;626931;226;62678;-68
2023/01/10 07:18:41;;;;;;;;;;;;;;;26.35;49.20;95952.36;626980;226;62780;-68
2023/01/10 07:21:09;;;;;;;;;;;;;;;26.38;49.30;95950.89;626930;226;64940;-75
2023/01/10 07:23:37;;;;;;;;;;;;;;;26.42;49.08;95953.73;626973;226;62663;-72
2023/01/10 07:26:06;;;;;;;;;;;;;;;26.44;49.65;95960.36;626913;226;64891;-69
2023/01/10 07:28:33;;;;;;;;;;;;;;;26.46;49.67;95954.63;627074;226;65019;-70
2023/01/10 07:31:02;;;;;;;;;;;;;;;26.47;49.55;95948.13;626910;226;65150;-71
2023/01/10 07:33:30;;;;;;;;;;;;;;;26.48;49.20;95944.31;626906;226;65020;-70
2023/01/10 07:35:58;;;;;;;;;;;;;;;26.53;44.72;95936.05;626961;226;63055;-72
2023/01/10 07:38:26;;;;;;;;;;;;;;;26.58;47.36;95940.45;626946;226;64946;-68
2023/01/10 07:40:53;;;;;;;;;;;;;;;26.59;43.33;95939.31;627017;226;64906;-70
2023/01/10 07:43:22;;;;;;;;;;;;;;;26.65;46.87;95946.06;626881;226;65191;-68
2023/01/10 07:45:49;;;;;;;;;;;;;;;26.68;46.90;95948.90;626963;226;64933;-68
2023/01/10 07:48:17;;;;;;;;;;;;;;;26.71;46.58;95940.14;626905;226;64962;-70
2023/01/10 07:50:45;;;;;;;;;;;;;;;26.71;47.94;95953.62;626890;226;62791;-69
2023/01/10 07:53:12;;;;;;;;;;;;;;;26.74;47.86;95949.47;623694;226;64813;-68
2023/01/10 07:55:40;;;;;;;;;;;;;;;26.76;43.64;95942.62;626958;226;64875;-71
2023/01/10 07:58:08;;;;;;;;;;;;;;;26.81;46.95;95949.69;626888;226;63079;-70
2023/01/10 08:00:35;;;;;;;;;;;;;;;26.83;45.08;95946.67;626898;226;63230;-68
2023/01/10 08:03:03;;;;;;;;;;;;;;;26.87;43.89;95955.65;626867;226;62694;-66
2023/01/10 08:05:30;;;;;;;;;;;;;;;26.88;48.48;95949.16;626911;226;65214;-71
2023/01/10 08:07:59;;;;;;;;;;;;;;;26.92;44.75;95955.44;626989;226;62935;-67
2023/01/10 08:10:27;;;;;;;;;;;;;;;26.96;44.04;95959.05;626904;225;62749;-68
2023/01/10 08:12:56;;;;;;;;;;;;;;;26.97;46.06;95961.40;626936;226;65262;-67
2023/01/10 08:15:24;;;;;;;;;;;;;;;26.99;46.55;95959.16;626999;226;62894;-68
2023/01/10 08:17:51;;;;;;;;;;;;;;;27.02;44.56;95963.09;627033;226;63016;-67
2023/01/10 08:20:18;;;;;;;;;;;;;;;26.98;43.57;95940.61;626937;226;63127;-67
2023/01/10 08:22:46;;;;;;;;;;;;;;;27.08;45.86;95960.97;627015;226;63043;-67
2023/01/10 08:25:13;;;;;;;;;;;;;;;27.10;45.37;95948.72;626948;226;65143;-67
2023/01/10 08:27:41;;;;;;;;;;;;;;;27.13;44.31;95949.96;626929;226;63534;-67
2023/01/10 08:30:09;;;;;;;;;;;;;;;27.14;42.90;95949.61;626997;226;63169;-67
2023/01/10 08:32:38;;;;;;;;;;;;;;;27.17;44.07;95958.97;626944;226;64914;-68
2023/01/10 08:35:06;;;;;;;;;;;;;;;27.20;44.59;95942.92;625082;226;65707;-66
2023/01/10 08:37:34;;;;;;;;;;;;;;;27.18;42.22;95949.77;624709;227;65046;-67
2023/01/10 08:40:01;;;;;;;;;;;;;;;27.19;45.58;95956.73;624631;227;62490;-67
2023/01/10 08:42:29;;;;;;;;;;;;;;;27.16;47.89;95957.38;624713;227;64968;-66
2023/01/10 08:44:57;;;;;;;;;;;;;;;27.16;48.33;95952.80;624722;227;65199;-70
2023/01/10 08:47:24;;;;;;;;;;;;;;;27.17;46.52;95942.79;624643;227;63074;-70
2023/01/10 08:49:52;;;;;;;;;;;;;;;27.18;46.64;95941.69;624629;227;64198;-70
2023/01/10 08:52:19;;;;;;;;;;;;;;;27.18;46.65;95939.77;624705;227;65067;-68
2023/01/10 08:54:47;;;;;;;;;;;;;;;27.16;46.81;95939.31;624616;227;64924;-69
2023/01/10 08:57:14;;;;;;;;;;;;;;;27.18;46.41;95931.67;624643;227;65255;-68
2023/01/10 08:59:42;;;;;;;;;;;;;;;27.19;45.89;95932.45;624662;227;63868;-68
2023/01/10 09:02:11;;;;;;;;;;;;;;;27.19;45.84;95933.23;624598;227;62781;-69
2023/01/10 09:04:39;;;;;;;;;;;;;;;27.19;46.07;95922.45;624684;227;65497;-69
2023/01/10 09:07:08;;;;;;;;;;;;;;;27.20;47.02;95934.83;624672;227;64586;-67
2023/01/10 09:09:37;;;;;;;;;;;;;;;27.20;42.16;95924.05;624735;227;46323;-66
2023/01/10 09:12:53;;;;;;;;;;;;;;;27.22;45.22;95913.68;624746;227;65579;-67
2023/01/10 09:14:34;;;;;;;;;;;;;;;27.23;46.10;95915.27;624260;227;65503;-67
2023/01/10 09:17:01;;;;;;;;;;;;;;;27.22;45.82;95924.47;624608;227;65027;-66
2023/01/10 09:19:29;;;;;;;;;;;;;;;27.22;47.74;95919.08;624695;227;63118;-67
2023/01/10 09:21:56;;;;;;;;;;;;;;;27.21;45.81;95914.81;624697;227;63038;-67
2023/01/10 09:24:24;;;;;;;;;;;;;;;27.21;39.11;95912.12;624716;227;65095;-66
2023/01/10 09:26:51;;;;;;;;;;;;;;;27.26;42.85;95907.63;624698;225;65094;-68
2023/01/10 09:29:20;;;;;;;;;;;;;;;27.27;44.47;95899.19;624683;227;65232;-68
2023/01/10 09:31:47;;;;;;;;;;;;;;;27.28;43.56;95889.18;624675;227;62888;-68
2023/01/10 09:34:16;;;;;;;;;;;;;;;27.30;43.07;95878.84;625639;226;62869;-69
2023/01/10 09:36:43;;;;;;;;;;;;;;;27.31;43.01;95875.01;626987;226;63108;-68
2023/01/10 09:39:11;;;;;;;;;;;;;;;27.29;38.90;95866.49;626882;226;62919;-68
2023/01/10 09:41:56;;;;;;;;;;;;;;;27.31;43.99;95862.33;626985;226;63400;-68
2023/01/10 09:44:43;;;;;;;;;;;;;;;27.31;43.85;95864.22;626957;226;65558;-68
2023/01/10 09:47:32;;;;;;;;;;;;;;;27.31;45.10;95861.52;626727;225;65079;-69
2023/01/10 09:50:07;;;;;;;;;;;;;;;27.33;42.99;95853.88;626965;226;65595;-68
2023/01/10 09:52:36;;;;;;;;;;;;;;;27.34;42.83;95850.86;626892;226;63289;-67
2023/01/10 09:55:14;;;;;;;;;;;;;;;27.36;45.93;95847.80;626939;226;63942;-68
2023/01/10 09:57:42;;;;;;;;;;;;;;;27.35;41.98;95846.24;623225;226;62880;-67
2023/01/10 10:00:11;;;;;;;;;;;;;;;27.38;43.35;95834.77;626889;226;63163;-68
2023/01/10 10:02:40;;;;;;;;;;;;;;;27.37;46.28;95825.89;626867;225;63068;-69
2023/01/10 10:05:22;;;;;;;;;;;;;;;27.40;44.20;95810.94;626655;225;63138;-69
2023/01/10 10:07:54;;;;;;;;;;;;;;;27.38;42.00;95822.06;626891;226;65032;-70
2023/01/10 10:10:42;;;;;;;;;;;;;;;27.40;43.69;95811.72;625874;225;62822;-68
2023/01/10 10:13:11;;;;;;;;;;;;;;;27.39;43.97;95820.95;615936;230;65554;-63
2023/01/10 10:15:43;;;;;;;;;;;;;;;27.41;45.89;95812.50;616031;230;65013;-68
2023/01/10 10:18:21;;;;;;;;;;;;;;;27.39;43.69;95807.46;620161;225;62919;-67
2023/01/10 10:20:50;;;;;;;;;;;;;;;27.40;45.64;95800.15;626885;226;63303;-68
2023/01/10 10:23:35;;;;;;;;;;;;;;;27.37;45.83;95798.14;626970;226;62868;-68
2023/01/10 10:26:08;;;;;;;;;;;;;;;27.36;46.53;95793.85;626968;226;63031;-70
2023/01/10 10:28:46;;;;;;;;;;;;;;;27.35;45.49;95781.50;626929;226;65490;-69
2023/01/10 10:31:32;;;;;;;;;;;;;;;27.34;45.27;95794.20;626971;226;63700;-68
2023/01/10 10:34:00;;;;;;;;;;;;;;;27.33;45.13;95800.71;626952;226;65251;-68
2023/01/10 10:36:46;;;;;;;;;;;;;;;27.33;44.72;95799.93;626850;225;63321;-69
2023/01/10 10:39:15;;;;;;;;;;;;;;;27.32;45.31;95807.24;626970;226;62939;-69
2023/01/10 10:41:44;;;;;;;;;;;;;;;27.30;45.44;95796.00;626734;225;62975;-72
2023/01/10 10:44:32;;;;;;;;;;;;;;;27.30;46.12;95806.02;627018;226;65462;-69
2023/01/10 10:46:59;;;;;;;;;;;;;;;27.30;45.19;95803.31;627012;226;63539;-67
2023/01/10 10:49:31;;;;;;;;;;;;;;;27.30;45.24;95803.31;626943;226;65060;-68
2023/01/10 10:52:00;;;;;;;;;;;;;;;27.29;46.59;95804.45;626854;225;62790;-71
2023/01/10 10:54:27;;;;;;;;;;;;;;;27.29;44.74;95799.06;626900;226;64748;-68
2023/01/10 10:56:57;;;;;;;;;;;;;;;27.29;47.23;95790.97;626878;226;64892;-67
2023/01/10 10:59:24;;;;;;;;;;;;;;;27.28;46.42;95798.25;627017;226;63995;-70
2023/01/10 11:01:51;;;;;;;;;;;;;;;27.28;45.23;95784.77;626995;226;62860;-67
2023/01/10 11:04:21;;;;;;;;;;;;;;;27.29;45.71;95788.27;626984;226;65037;-69
2023/01/10 11:06:49;;;;;;;;;;;;;;;27.30;44.82;95769.03;626975;226;62763;-68
2023/01/10 11:09:31;;;;;;;;;;;;;;;27.30;45.58;95774.42;626999;226;62822;-67
2023/01/10 11:11:53;;;;;;;;;;;;;;;27.30;45.41;95773.64;626336;226;63663;-68
2023/01/10 11:14:38;;;;;;;;;;;;;;;27.29;46.81;95770.17;627030;226;65679;-65
2023/01/10 11:17:19;;;;;;;;;;;;;;;27.27;44.18;95764.32;626927;226;63154;-68
2023/01/10 11:19:57;;;;;;;;;;;;;;;27.26;46.83;95761.98;627022;226;64994;-67
2023/01/10 11:22:27;;;;;;;;;;;;;;;27.23;45.97;95761.53;626992;226;65357;-68
2023/01/10 11:24:56;;;;;;;;;;;;;;;27.21;46.45;95755.69;626951;226;63164;-67
2023/01/10 11:27:25;;;;;;;;;;;;;;;27.20;45.31;95748.73;626478;225;65132;-66
2023/01/10 11:29:55;;;;;;;;;;;;;;;27.16;39.16;95747.83;626975;226;65385;-68
2023/01/10 11:32:24;;;;;;;;;;;;;;;27.23;42.31;95750.74;626957;226;65165;-68
2023/01/10 11:34:53;;;;;;;;;;;;;;;27.24;42.27;95748.83;626798;225;62998;-68
2023/01/10 11:37:24;;;;;;;;;;;;;;;27.26;43.42;95748.50;626509;225;63329;-68
2023/01/10 11:39:53;;;;;;;;;;;;;;;27.25;43.65;95755.00;627049;226;64888;-67
2023/01/10 11:42:30;;;;;;;;;;;;;;;27.25;45.68;95765.78;626578;225;65173;-67
2023/01/10 11:44:59;;;;;;;;;;;;;;;27.23;44.64;95761.53;627064;226;65584;-68
2023/01/10 11:47:28;;;;;;;;;;;;;;;27.23;44.76;95771.54;624877;226;46027;-67
2023/01/10 11:50:01;;;;;;;;;;;;;;;27.22;45.65;95761.86;626286;226;65068;-67
2023/01/10 11:52:31;;;;;;;;;;;;;;;27.21;45.23;95755.69;626997;226;65545;-67
2023/01/10 11:55:00;;;;;;;;;;;;;;;27.21;44.82;95752.98;625931;226;65132;-70
2023/01/10 11:57:29;;;;;;;;;;;;;;;27.22;43.24;95751.85;626863;226;65107;-67
2023/01/10 11:59:58;;;;;;;;;;;;;;;27.22;44.46;95749.16;626842;226;62956;-68
2023/01/10 12:02:27;;;;;;;;;;;;;;;27.21;43.65;95744.90;626160;226;63054;-69
2023/01/10 12:04:56;;;;;;;;;;;;;;;27.22;45.63;95746.45;619111;226;64884;-68
2023/01/10 12:07:25;;;;;;;;;;;;;;;27.21;44.52;95744.12;619776;228;62948;-68
2023/01/10 12:09:55;;;;;;;;;;;;;;;27.20;47.24;95743.34;619910;228;64683;-68
2023/01/10 12:12:28;;;;;;;;;;;;;;;27.20;45.41;95743.34;619739;228;46154;-68
2023/01/10 12:14:57;;;;;;;;;;;;;;;27.21;45.39;95744.90;619821;229;65836;-68
2023/01/10 12:17:26;;;;;;;;;;;;;;;27.19;43.95;95741.75;619848;229;65192;-69
2023/01/10 12:19:57;;;;;;;;;;;;;;;27.19;45.23;95747.14;619844;229;65042;-69
2023/01/10 12:22:28;;;;;;;;;;;;;;;27.19;46.09;95738.27;619704;229;63119;-69
2023/01/10 12:24:59;;;;;;;;;;;;;;;27.18;45.03;95740.19;619747;229;65386;-69
2023/01/10 12:27:28;;;;;;;;;;;;;;;27.19;45.33;95736.36;619812;227;65101;-67
2023/01/10 12:29:58;;;;;;;;;;;;;;;27.19;46.53;95747.14;619805;229;63278;-67
2023/01/10 12:32:27;;;;;;;;;;;;;;;27.19;45.03;95746.36;619099;228;62820;-68
2023/01/10 12:34:56;;;;;;;;;;;;;;;27.16;45.63;95744.33;618230;229;63818;-68
2023/01/10 12:37:25;;;;;;;;;;;;;;;27.15;45.73;95746.23;617514;228;65461;-69
2023/01/10 12:39:57;;;;;;;;;;;;;;;27.14;46.58;95749.27;617570;228;65136;-69
2023/01/10 12:45:18;;;;;;;;;;;;;;;27.12;46.09;95735.33;617619;227;43717;-69
2023/01/10 12:47:49;;;;;;;;;;;;;;;27.10;44.93;95745.70;615098;230;62873;-68
2023/01/10 12:50:18;;;;;;;;;;;;;;;27.10;45.01;95753.79;617447;228;62758;-66
2023/01/10 12:52:51;;;;;;;;;;;;;;;27.09;46.79;95752.20;617588;228;71280;-66
2023/01/10 12:55:22;;;;;;;;;;;;;;;27.07;45.57;95755.25;617553;230;66504;-68
2023/01/10 12:57:52;;;;;;;;;;;;;;;27.07;46.97;95763.34;617581;230;62977;-69
2023/01/10 13:00:24;;;;;;;;;;;;;;;27.08;46.04;95774.91;617546;228;46676;-69
2023/01/10 13:02:53;;;;;;;;;;;;;;;27.06;43.98;95780.63;617587;228;66519;-69
2023/01/10 13:05:24;;;;;;;;;;;;;;;27.06;46.28;95796.80;617523;230;65045;-68
2023/01/10 13:07:57;;;;;;;;;;;;;;;27.06;44.94;95796.02;617532;230;65679;-68